Time;durP1;ratioP1;P1;durP2;ratioP2;P2;SDS_P1;SDS_P2;PMS_P1;PMS_P2;Temp;Humidity;BMP_temperature;BMP_pressure;BME280_temperature;BME280_humidity;BME280_pressure;Samples;Min_cycle;Max_cycle;Signal;HPM_P1;HPM_P2
2024/01/08 00:02:18;;;;;;;;;32.75;24.50;;;;;1.48;81.65;102332.75;5019583;28;45322;-79
2024/01/08 00:04:43;;;;;;;;;21.00;18.75;;;;;1.61;80.07;102325.97;5024207;28;45593;-81
2024/01/08 00:07:08;;;;;;;;;27.50;22.00;;;;;1.66;78.06;102386.91;5019147;28;46419;-80
2024/01/08 00:09:34;;;;;;;;;18.75;17.75;;;;;2.09;78.41;102451.00;5013940;28;45543;-80
2024/01/08 00:11:59;;;;;;;;;20.00;18.00;;;;;1.49;79.50;102350.16;5024889;28;45432;-79
2024/01/08 00:14:24;;;;;;;;;21.50;16.00;;;;;1.77;77.57;102432.25;5025178;28;45631;-79
2024/01/08 00:16:50;;;;;;;;;17.00;17.00;;;;;1.04;78.68;102352.03;5021657;28;45479;-79
2024/01/08 00:19:16;;;;;;;;;24.75;18.50;;;;;1.44;77.72;102387.44;5011010;28;45455;-79
2024/01/08 00:21:41;;;;;;;;;17.75;14.00;;;;;1.23;78.37;102361.03;5015807;28;45366;-80
2024/01/08 00:24:09;;;;;;;;;25.75;17.75;;;;;1.07;78.36;102327.75;5020165;28;45293;-78
2024/01/08 00:26:37;;;;;;;;;24.00;22.00;;;;;1.34;77.81;102422.88;5010097;28;46334;-79
2024/01/08 00:29:02;;;;;;;;;23.50;20.50;;;;;0.61;77.83;102313.09;5012250;28;45408;-79
2024/01/08 00:31:28;;;;;;;;;21.00;21.00;;;;;0.66;79.06;102294.09;5015479;28;45370;-78
2024/01/08 00:33:53;;;;;;;;;21.75;15.75;;;;;1.38;77.00;102402.94;5012726;28;45863;-80
2024/01/08 00:36:18;;;;;;;;;24.00;21.75;;;;;0.78;78.59;102307.34;5004306;28;46077;-79
2024/01/08 00:38:44;;;;;;;;;26.25;22.00;;;;;0.77;77.46;102333.34;5020210;28;45264;-79
2024/01/08 00:41:12;;;;;;;;;29.50;21.25;;;;;0.84;77.02;102327.38;5007078;28;45407;-79
2024/01/08 00:43:38;;;;;;;;;24.75;17.50;;;;;0.89;76.55;102359.59;5019247;28;45531;-79
2024/01/08 00:46:06;;;;;;;;;15.00;11.25;;;;;0.44;76.87;102277.25;5019529;28;46472;-79
2024/01/08 00:48:31;;;;;;;;;18.75;16.00;;;;;1.62;76.33;102496.34;5019727;28;45636;-80
2024/01/08 00:50:57;;;;;;;;;21.50;18.50;;;;;1.07;77.18;102359.03;5014304;28;45275;-80
2024/01/08 00:53:22;;;;;;;;;21.25;19.75;;;;;0.58;76.08;102305.25;5018514;28;45267;-80
2024/01/08 00:55:47;;;;;;;;;24.00;21.00;;;;;1.12;76.01;102370.38;5020154;28;46684;-79
2024/01/08 00:58:13;;;;;;;;;24.75;22.75;;;;;0.97;77.14;102351.06;5020203;28;45406;-79
2024/01/08 01:00:38;;;;;;;;;18.25;16.50;;;;;1.62;77.05;102439.84;5012296;28;45511;-79
2024/01/08 01:03:04;;;;;;;;;27.25;22.50;;;;;0.51;76.68;102250.47;5023572;28;45461;-79
2024/01/08 01:05:29;;;;;;;;;16.25;12.25;;;;;0.88;76.20;102337.00;5050527;28;47448;-81
2024/01/08 01:07:54;;;;;;;;;22.00;19.25;;;;;0.88;78.10;102371.72;5018045;28;45436;-80
2024/01/08 01:10:20;;;;;;;;;23.75;22.50;;;;;1.23;77.80;102392.28;5015989;28;45519;-81
2024/01/08 01:12:45;;;;;;;;;19.50;17.25;;;;;1.30;77.21;102420.22;5018755;28;45654;-81
2024/01/08 01:15:14;;;;;;;;;21.75;19.75;;;;;1.52;77.91;102427.53;5018328;28;46349;-81
2024/01/08 01:17:42;;;;;;;;;24.00;19.00;;;;;0.97;78.32;102327.63;5023361;28;45326;-81
2024/01/08 01:20:08;;;;;;;;;22.00;17.25;;;;;0.98;77.98;102329.34;5010703;28;45329;-80
2024/01/08 01:22:33;;;;;;;;;25.25;20.00;;;;;1.65;77.40;102462.47;5016865;28;45567;-81
2024/01/08 01:24:58;;;;;;;;;25.25;23.00;;;;;1.19;77.80;102412.22;5014295;28;45676;-81
2024/01/08 01:27:24;;;;;;;;;19.25;19.25;;;;;0.58;79.13;102295.72;5019347;28;45343;-82
2024/01/08 01:29:49;;;;;;;;;20.25;20.25;;;;;1.37;77.69;102402.09;5019422;28;45340;-80
2024/01/08 01:32:15;;;;;;;;;29.00;22.75;;;;;1.21;77.91;102388.78;5020139;28;45452;-80
2024/01/08 01:34:41;;;;;;;;;24.00;22.00;;;;;0.71;78.25;102276.84;5019953;28;46528;-80
2024/01/08 01:37:06;;;;;;;;;25.75;21.50;;;;;0.55;77.62;102294.78;5019311;28;45488;-80
2024/01/08 01:39:33;;;;;;;;;22.25;13.75;;;;;0.74;74.73;102302.03;5010974;28;45604;-81
2024/01/08 01:41:58;;;;;;;;;24.75;21.00;;;;;1.02;76.00;102361.53;5010544;28;45489;-81
2024/01/08 01:44:23;;;;;;;;;24.25;21.00;;;;;1.49;75.66;102487.44;5017144;28;46295;-81
2024/01/08 01:46:51;;;;;;;;;25.00;21.00;;;;;0.39;78.00;102272.81;5010707;28;45356;-81
2024/01/08 01:49:19;;;;;;;;;21.00;18.25;;;;;1.12;76.40;102404.25;5015108;28;45589;-81
2024/01/08 01:51:46;;;;;;;;;21.25;18.25;;;;;1.00;77.69;102348.50;5009671;28;45694;-81
2024/01/08 01:54:16;;;;;;;;;21.25;17.50;;;;;0.60;76.29;102304.41;5030091;28;45479;-81
2024/01/08 01:56:46;;;;;;;;;22.25;16.25;;;;;1.15;76.36;102409.50;5014402;28;45302;-81
2024/01/08 01:59:13;;;;;;;;;18.50;11.75;;;;;0.92;74.91;102337.06;5019363;28;45534;-80
2024/01/08 02:01:39;;;;;;;;;14.75;14.75;;;;;1.51;75.84;102441.41;5010219;28;45568;-80
2024/01/08 02:04:05;;;;;;;;;18.25;16.75;;;;;1.45;75.50;102470.84;5017489;28;47178;-80
2024/01/08 02:06:33;;;;;;;;;19.25;13.50;;;;;0.68;75.55;102307.16;5017167;28;45408;-80
2024/01/08 02:08:59;;;;;;;;;17.25;16.50;;;;;0.39;76.18;102309.25;5029230;28;45471;-80
2024/01/08 02:11:24;;;;;;;;;15.75;12.50;;;;;0.73;74.42;102339.34;5017094;28;45405;-80
2024/01/08 02:13:49;;;;;;;;;15.50;15.25;;;;;1.14;73.67;102431.22;5017543;28;45359;-80
2024/01/08 02:16:18;;;;;;;;;10.75;10.75;;;;;0.63;74.46;102342.63;5015268;28;45407;-82
2024/01/08 02:18:43;;;;;;;;;15.00;13.75;;;;;0.40;74.18;102301.44;5017595;28;45373;-80
2024/01/08 02:21:09;;;;;;;;;16.00;13.75;;;;;0.89;75.04;102416.88;5010447;28;45288;-80
2024/01/08 02:23:34;;;;;;;;;13.00;12.50;;;;;0.43;73.83;102337.06;5000337;28;45762;-80
2024/01/08 02:26:00;;;;;;;;;16.50;15.00;;;;;0.95;73.41;102403.97;5019537;28;45230;-81
2024/01/08 02:28:26;;;;;;;;;12.25;10.00;;;;;0.59;73.86;102353.84;5019516;28;45411;-81
2024/01/08 02:30:51;;;;;;;;;12.50;11.25;;;;;0.88;74.07;102399.50;5018725;28;45464;-80
2024/01/08 02:33:17;;;;;;;;;10.25;9.25;;;;;0.60;73.84;102358.19;5018769;28;45354;-80
2024/01/08 02:35:42;;;;;;;;;17.25;12.75;;;;;0.59;74.91;102320.00;5017563;28;46025;-80
2024/01/08 02:38:07;;;;;;;;;12.75;9.75;;;;;1.28;72.78;102450.56;5015911;28;45284;-80
2024/01/08 02:40:33;;;;;;;;;14.50;11.00;;;;;0.95;73.97;102397.03;5017984;28;45395;-80
2024/01/08 02:43:00;;;;;;;;;17.50;13.00;;;;;0.91;74.19;102400.44;5012663;28;45411;-80
2024/01/08 02:45:26;;;;;;;;;16.00;13.75;;;;;0.90;74.24;102403.91;5017170;28;45355;-80
2024/01/08 02:47:51;;;;;;;;;14.25;12.75;;;;;0.74;75.81;102378.44;5018750;28;45403;-80
2024/01/08 02:50:16;;;;;;;;;23.25;17.25;;;;;0.99;75.47;102440.53;5018136;28;45494;-80
2024/01/08 02:52:44;;;;;;;;;14.00;13.00;;;;;0.72;75.74;102382.72;5011271;28;45648;-80
2024/01/08 02:55:10;;;;;;;;;18.75;13.00;;;;;0.90;75.97;102414.31;5017590;28;45380;-80
2024/01/08 02:57:36;;;;;;;;;12.75;10.25;;;;;1.02;76.12;102431.88;5005099;28;45275;-80
2024/01/08 03:00:05;;;;;;;;;16.75;16.50;;;;;1.51;76.56;102510.06;5011440;28;45225;-82
2024/01/08 03:02:31;;;;;;;;;17.75;17.00;;;;;1.39;76.29;102460.34;5015458;28;46382;-80
2024/01/08 03:04:56;;;;;;;;;16.00;16.00;;;;;0.96;76.05;102427.44;5026644;28;45461;-80
2024/01/08 03:07:22;;;;;;;;;15.25;13.75;;;;;1.07;76.07;102435.47;5014269;28;45350;-80
2024/01/08 03:09:48;;;;;;;;;19.00;17.75;;;;;1.16;75.76;102466.88;5014240;28;45325;-81
2024/01/08 03:12:14;;;;;;;;;20.50;16.75;;;;;0.82;75.88;102378.59;5017945;28;46521;-81
2024/01/08 03:14:43;;;;;;;;;17.50;14.25;;;;;0.83;77.20;102406.34;5018608;28;45463;-80
2024/01/08 03:17:09;;;;;;;;;23.25;18.50;;;;;1.02;78.19;102429.28;5021917;28;45371;-81
2024/01/08 03:19:34;;;;;;;;;18.75;16.75;;;;;1.10;77.07;102445.94;5021874;28;45641;-80
2024/01/08 03:22:04;;;;;;;;;14.50;14.50;;;;;0.90;77.14;102393.47;5022114;28;45515;-81
2024/01/08 03:24:33;;;;;;;;;23.00;16.25;;;;;1.46;77.75;102523.88;5017803;28;45453;-81
2024/01/08 03:26:58;;;;;;;;;14.25;12.50;;;;;0.52;77.90;102364.13;5015215;28;45306;-81
2024/01/08 03:29:24;;;;;;;;;16.25;14.25;;;;;0.81;77.11;102408.94;5021556;28;45229;-81
2024/01/08 03:31:49;;;;;;;;;10.00;10.00;;;;;1.00;78.06;102413.63;5020367;28;47188;-80
2024/01/08 03:34:15;;;;;;;;;14.50;13.00;;;;;1.08;76.08;102438.94;5019744;28;45362;-80
2024/01/08 03:36:50;;;;;;;;;12.75;10.50;;;;;1.17;76.98;102459.94;5016363;28;45490;-80
2024/01/08 03:39:17;;;;;;;;;14.00;12.00;;;;;1.13;77.69;102469.44;5013476;28;45514;-80
2024/01/08 03:41:43;;;;;;;;;12.75;12.00;;;;;1.34;77.99;102519.31;5032323;28;48334;-80
2024/01/08 03:44:09;;;;;;;;;16.50;13.00;;;;;1.51;78.17;102541.34;5009355;28;45454;-81
2024/01/08 03:46:37;;;;;;;;;14.75;11.25;;;;;1.48;77.31;102543.91;5019546;28;45459;-80
2024/01/08 03:49:03;;;;;;;;;16.00;12.25;;;;;1.28;76.49;102476.63;5019829;28;45299;-80
2024/01/08 03:51:30;;;;;;;;;12.00;11.00;;;;;0.81;77.14;102421.09;5025463;28;45891;-80
2024/01/08 03:53:56;;;;;;;;;17.50;13.00;;;;;1.08;74.78;102449.38;5017043;28;45328;-81
2024/01/08 03:56:24;;;;;;;;;14.00;13.00;;;;;0.46;75.04;102382.22;5016815;28;45482;-81
2024/01/08 03:58:49;;;;;;;;;15.75;15.75;;;;;0.09;75.16;102299.13;5018815;28;45718;-81
2024/01/08 04:01:15;;;;;;;;;8.50;8.00;;;;;0.58;74.99;102415.44;5019520;28;48010;-81
2024/01/08 04:03:41;;;;;;;;;14.75;11.00;;;;;1.08;75.50;102467.59;5026668;28;45434;-80
2024/01/08 04:06:06;;;;;;;;;17.50;16.00;;;;;0.59;75.27;102391.16;5022100;28;45294;-81
2024/01/08 04:08:32;;;;;;;;;21.75;15.25;;;;;0.97;75.89;102476.09;5017249;28;45591;-80
2024/01/08 04:10:57;;;;;;;;;15.50;10.00;;;;;1.04;74.92;102517.03;5013026;28;46410;-78
2024/01/08 04:13:22;;;;;;;;;14.50;14.00;;;;;0.53;74.48;102433.56;5019223;28;45282;-80
2024/01/08 04:15:48;;;;;;;;;9.75;9.50;;;;;0.68;74.59;102439.94;5019276;28;45611;-80
2024/01/08 04:18:14;;;;;;;;;14.75;11.75;;;;;0.81;74.67;102461.03;5015038;28;45526;-81
2024/01/08 04:20:40;;;;;;;;;18.50;15.50;;;;;0.77;75.72;102489.56;5018277;28;45530;-81
2024/01/08 04:23:05;;;;;;;;;14.00;14.00;;;;;0.91;75.82;102495.94;5007341;28;45393;-81
2024/01/08 04:25:31;;;;;;;;;16.50;11.25;;;;;0.80;75.49;102493.13;5017883;28;45470;-81
2024/01/08 04:27:56;;;;;;;;;4.50;4.50;;;;;0.74;76.50;102476.50;5016253;28;45788;-81
2024/01/08 04:30:22;;;;;;;;;16.50;15.75;;;;;1.08;75.63;102511.88;5019100;28;45630;-82
2024/01/08 04:32:47;;;;;;;;;9.00;8.00;;;;;0.41;75.15;102396.91;5011583;28;45486;-82
2024/01/08 04:35:13;;;;;;;;;14.50;13.50;;;;;1.09;75.13;102534.47;5018964;28;45878;-81
2024/01/08 04:37:42;;;;;;;;;17.50;16.00;;;;;0.89;74.96;102510.63;5019204;28;45746;-79
2024/01/08 04:40:08;;;;;;;;;13.25;13.25;;;;;0.54;74.38;102431.84;5030677;28;46201;-80
2024/01/08 04:42:34;;;;;;;;;16.50;14.75;;;;;0.26;73.91;102382.72;5019059;28;45285;-81
2024/01/08 04:44:59;;;;;;;;;13.25;9.25;;;;;0.34;75.88;102428.84;5010894;28;45511;-80
2024/01/08 04:47:25;;;;;;;;;20.25;14.25;;;;;0.08;76.77;102353.72;5020051;28;45474;-80
2024/01/08 04:49:53;;;;;;;;;19.25;16.00;;;;;0.80;75.44;102481.81;5019161;28;47830;-80
2024/01/08 04:52:28;;;;;;;;;17.75;13.00;;;;;0.55;76.72;102431.00;5019059;28;45468;-80
2024/01/08 04:55:00;;;;;;;;;13.50;11.75;;;;;0.21;75.84;102397.34;5032819;28;45298;-80
2024/01/08 04:57:25;;;;;;;;;17.75;14.75;;;;;0.30;77.16;102406.19;5014612;28;45381;-80
2024/01/08 04:59:51;;;;;;;;;14.00;14.00;;;;;0.53;75.51;102415.34;5011769;28;45484;-81
2024/01/08 05:02:16;;;;;;;;;13.00;13.00;;;;;0.47;75.22;102420.44;5017376;28;45542;-81
2024/01/08 05:04:41;;;;;;;;;16.00;14.25;;;;;0.79;76.48;102485.25;5028542;28;45460;-81
2024/01/08 05:07:07;;;;;;;;;10.75;9.75;;;;;0.43;74.17;102433.34;5018360;28;45440;-80
2024/01/08 05:09:32;;;;;;;;;19.50;13.50;;;;;0.55;73.92;102457.03;5011618;28;46308;-80
2024/01/08 05:12:01;;;;;;;;;12.50;12.25;;;;;0.33;73.64;102398.44;4998256;28;45494;-80
2024/01/08 05:14:26;;;;;;;;;16.25;11.00;;;;;0.82;74.39;102474.94;5006882;28;45522;-80
2024/01/08 05:16:52;;;;;;;;;16.75;13.00;;;;;0.59;73.44;102484.00;5018280;28;45293;-80
2024/01/08 05:19:17;;;;;;;;;14.25;14.25;;;;;0.30;73.59;102428.72;5017187;28;46458;-81
2024/01/08 05:21:43;;;;;;;;;18.75;13.50;;;;;0.11;72.97;102378.06;5017944;28;45485;-81
2024/01/08 05:24:11;;;;;;;;;17.25;12.25;;;;;0.07;72.92;102364.94;5019576;28;45354;-82
2024/01/08 05:26:39;;;;;;;;;20.25;15.25;;;;;0.48;72.99;102458.63;5015468;28;45413;-80
2024/01/08 05:29:07;;;;;;;;;16.50;15.50;;;;;0.53;72.76;102484.75;5017865;28;46929;-80
2024/01/08 05:31:33;;;;;;;;;19.75;14.75;;;;;0.74;73.61;102500.81;5024280;28;45678;-80
2024/01/08 05:33:58;;;;;;;;;13.50;9.00;;;;;0.42;74.00;102468.03;5021754;28;45473;-82
2024/01/08 05:36:23;;;;;;;;;14.00;14.00;;;;;0.05;72.53;102387.47;5019801;28;45223;-82
2024/01/08 05:38:49;;;;;;;;;18.50;14.00;;;;;0.44;72.38;102475.03;5015757;28;47357;-82
2024/01/08 05:41:18;;;;;;;;;23.50;13.50;;;;;0.13;72.82;102424.94;5017171;28;45518;-82
2024/01/08 05:43:43;;;;;;;;;17.25;15.75;;;;;0.09;71.90;102382.38;5006904;28;45398;-81
2024/01/08 05:46:10;;;;;;;;;19.00;14.50;;;;;0.76;72.05;102504.31;5018492;28;45488;-82
2024/01/08 05:48:38;;;;;;;;;14.75;14.75;;;;;0.03;71.78;102371.84;5017449;28;47843;-82
2024/01/08 05:51:07;;;;;;;;;15.25;14.00;;;;;0.57;73.42;102481.34;5013673;28;45324;-82
2024/01/08 05:53:33;;;;;;;;;12.75;12.00;;;;;0.99;72.86;102556.84;5020080;28;45476;-81
2024/01/08 05:55:58;;;;;;;;;15.75;13.00;;;;;0.57;73.78;102476.16;5015087;28;45705;-81
2024/01/08 05:58:24;;;;;;;;;20.00;15.25;;;;;0.75;73.21;102512.09;5019390;28;45714;-80
2024/01/08 06:00:49;;;;;;;;;18.00;13.00;;;;;0.61;73.96;102467.56;5011921;28;45320;-81
2024/01/08 06:03:15;;;;;;;;;18.00;17.25;;;;;0.49;73.87;102433.50;5017900;28;45469;-81
2024/01/08 06:05:40;;;;;;;;;13.25;13.25;;;;;0.60;74.15;102483.13;5015682;28;45472;-80
2024/01/08 06:08:10;;;;;;;;;15.50;14.00;;;;;0.99;73.07;102565.56;5021546;28;46083;-81
2024/01/08 06:10:35;;;;;;;;;16.00;14.00;;;;;0.50;73.00;102441.31;5019357;28;45510;-80
2024/01/08 06:13:05;;;;;;;;;17.75;17.50;;;;;0.90;73.72;102518.50;5029677;28;45455;-81
2024/01/08 06:15:32;;;;;;;;;13.00;12.50;;;;;0.63;72.01;102459.75;5027348;28;45430;-81
2024/01/08 06:17:58;;;;;;;;;18.00;14.00;;;;;0.27;74.28;102444.28;5025454;28;46326;-79
2024/01/08 06:20:23;;;;;;;;;14.00;12.25;;;;;-0.05;72.76;102356.06;5028846;28;45412;-78
2024/01/08 06:22:48;;;;;;;;;27.00;17.00;;;;;0.31;74.69;102436.59;5017041;28;45579;-78
2024/01/08 06:25:14;;;;;;;;;17.75;16.00;;;;;0.36;73.90;102423.69;5014983;28;45534;-78
2024/01/08 06:27:39;;;;;;;;;12.50;12.50;;;;;0.46;73.53;102451.63;5014618;28;45316;-79
2024/01/08 06:30:05;;;;;;;;;19.50;17.00;;;;;1.03;74.40;102548.25;5008821;28;45630;-78
2024/01/08 06:32:31;;;;;;;;;17.50;15.75;;;;;0.61;73.08;102464.97;5024279;28;45377;-80
2024/01/08 06:34:57;;;;;;;;;17.00;13.00;;;;;0.45;73.81;102452.50;4995494;28;45527;-80
2024/01/08 06:37:22;;;;;;;;;19.00;14.75;;;;;0.56;74.60;102477.00;5005473;28;47970;-80
2024/01/08 06:39:48;;;;;;;;;17.50;16.75;;;;;0.36;74.22;102452.31;5006322;28;45269;-80
2024/01/08 06:42:13;;;;;;;;;19.50;16.75;;;;;0.74;73.86;102500.81;5007285;28;45468;-81
2024/01/08 06:44:38;;;;;;;;;18.25;15.50;;;;;0.94;74.31;102555.91;5006993;28;45654;-82
2024/01/08 06:47:04;;;;;;;;;16.00;14.25;;;;;0.91;74.02;102545.41;4998680;28;45457;-81
2024/01/08 06:49:29;;;;;;;;;16.50;16.50;;;;;0.74;74.47;102513.81;4997205;28;45523;-82
2024/01/08 06:51:55;;;;;;;;;20.25;16.75;;;;;0.42;74.88;102452.44;4984527;28;45375;-81
2024/01/08 06:54:20;;;;;;;;;15.00;13.00;;;;;0.60;74.40;102484.03;4997752;28;45347;-82
2024/01/08 06:56:45;;;;;;;;;16.25;15.75;;;;;0.96;72.49;102564.59;4998189;28;45446;-81
2024/01/08 06:59:11;;;;;;;;;17.50;17.50;;;;;0.72;73.02;102522.47;4996909;28;45857;-82
2024/01/08 07:01:36;;;;;;;;;16.25;15.75;;;;;0.50;71.35;102485.56;4994392;28;45262;-81
2024/01/08 07:04:01;;;;;;;;;23.50;20.25;;;;;0.69;70.18;102512.84;4997464;28;45392;-81
2024/01/08 07:06:27;;;;;;;;;21.75;15.00;;;;;0.72;69.67;102528.53;4997148;28;45266;-83
2024/01/08 07:08:52;;;;;;;;;15.25;12.75;;;;;0.62;68.71;102529.22;4996865;28;45287;-82
2024/01/08 07:11:24;;;;;;;;;29.25;19.00;;;;;0.83;69.93;102557.41;4997107;28;45631;-82
2024/01/08 07:13:50;;;;;;;;;18.75;17.50;;;;;0.42;69.97;102502.75;4986683;28;45778;-82
2024/01/08 07:16:17;;;;;;;;;18.25;14.00;;;;;0.38;70.49;102487.91;4985427;28;46730;-82
2024/01/08 07:18:42;;;;;;;;;19.00;18.25;;;;;0.16;70.70;102456.19;4997458;28;45311;-81
2024/01/08 07:21:09;;;;;;;;;18.25;17.25;;;;;0.74;71.87;102568.50;4997232;28;45328;-81
2024/01/08 07:23:35;;;;;;;;;25.50;19.25;;;;;0.75;72.88;102557.25;4994151;28;44888;-81
2024/01/08 07:26:01;;;;;;;;;22.50;18.50;;;;;0.62;74.39;102526.59;4998705;28;45556;-82
2024/01/08 07:28:28;;;;;;;;;17.25;16.00;;;;;0.08;73.27;102462.94;4997605;28;46046;-81
2024/01/08 07:30:53;;;;;;;;;23.25;15.75;;;;;0.45;71.57;102494.13;5010939;28;45340;-85
2024/01/08 07:33:18;;;;;;;;;19.75;19.00;;;;;0.23;72.81;102460.69;4990662;28;45504;-82
2024/01/08 07:35:44;;;;;;;;;20.00;17.50;;;;;0.36;72.14;102500.00;4995160;28;45922;-81
2024/01/08 07:38:09;;;;;;;;;23.00;18.25;;;;;0.81;73.32;102559.97;4985275;28;45496;-81
2024/01/08 07:40:35;;;;;;;;;22.25;19.00;;;;;0.24;73.87;102454.63;4994411;28;45299;-80
2024/01/08 07:43:04;;;;;;;;;20.00;18.50;;;;;0.61;74.42;102536.97;4985153;28;45408;-80
2024/01/08 07:45:29;;;;;;;;;23.00;19.50;;;;;0.09;72.19;102433.50;4996025;28;47167;-79
2024/01/08 07:47:57;;;;;;;;;17.25;15.25;;;;;0.77;73.98;102549.47;4994395;28;45540;-80
2024/01/08 07:50:22;;;;;;;;;20.75;19.00;;;;;0.38;73.72;102484.44;5001272;28;45351;-80
2024/01/08 07:52:48;;;;;;;;;21.50;18.25;;;;;0.72;73.34;102538.09;5001881;28;46630;-80
2024/01/08 07:55:13;;;;;;;;;19.75;19.25;;;;;0.82;73.21;102551.31;4996248;28;45557;-81
2024/01/08 07:57:38;;;;;;;;;21.00;16.75;;;;;0.79;73.22;102553.84;4989805;28;45359;-81
2024/01/08 08:00:06;;;;;;;;;19.00;17.50;;;;;0.29;72.87;102466.03;4991859;28;45492;-81
2024/01/08 08:02:32;;;;;;;;;18.50;18.50;;;;;0.62;73.24;102526.59;4994266;28;45430;-80
2024/01/08 08:04:58;;;;;;;;;27.75;20.00;;;;;0.19;72.95;102470.16;5011551;28;45626;-80
2024/01/08 08:07:23;;;;;;;;;20.50;16.50;;;;;0.72;73.10;102548.50;4993143;28;45577;-80
2024/01/08 08:09:49;;;;;;;;;21.00;18.25;;;;;0.47;72.69;102515.84;4997724;28;49473;-79
2024/01/08 08:12:14;;;;;;;;;20.50;16.50;;;;;0.78;74.01;102546.91;4995120;28;45395;-80
2024/01/08 08:14:39;;;;;;;;;20.00;17.75;;;;;0.71;72.96;102526.78;4988276;28;45397;-79
2024/01/08 08:17:05;;;;;;;;;16.50;15.75;;;;;0.71;71.07;102536.31;5000380;28;45398;-80
2024/01/08 08:19:31;;;;;;;;;18.75;16.00;;;;;0.68;72.17;102531.94;4983643;28;45423;-79
2024/01/08 08:21:56;;;;;;;;;32.00;24.00;;;;;0.80;73.28;102573.84;4989998;28;45719;-79
2024/01/08 08:24:22;;;;;;;;;24.50;17.25;;;;;0.78;72.47;102541.69;5000134;28;45445;-79
2024/01/08 08:26:48;;;;;;;;;19.50;14.25;;;;;0.75;72.23;102557.25;4998239;28;45518;-80
2024/01/08 08:29:13;;;;;;;;;20.75;17.00;;;;;0.62;72.60;102533.53;4983346;28;45414;-80
2024/01/08 08:31:39;;;;;;;;;16.00;16.00;;;;;0.84;72.55;102566.97;5000147;28;45519;-80
2024/01/08 08:34:04;;;;;;;;;22.00;17.75;;;;;0.82;72.20;102572.13;4997513;28;47156;-80
2024/01/08 08:36:29;;;;;;;;;18.50;16.75;;;;;0.72;72.16;102553.72;5024039;28;45386;-80
2024/01/08 08:38:56;;;;;;;;;26.00;22.25;;;;;0.83;73.66;102579.09;5012822;28;45465;-80
2024/01/08 08:41:21;;;;;;;;;22.00;17.25;;;;;0.67;73.85;102540.59;4979369;28;45347;-80
2024/01/08 08:43:48;;;;;;;;;19.75;16.00;;;;;0.26;72.90;102487.63;4983533;28;45565;-80
2024/01/08 08:46:16;;;;;;;;;22.50;19.25;;;;;0.12;73.59;102488.19;4988780;28;45413;-80
2024/01/08 08:48:41;;;;;;;;;18.50;16.75;;;;;0.23;74.94;102477.16;4992593;28;45445;-80
2024/01/08 08:51:07;;;;;;;;;23.25;15.00;;;;;0.38;75.00;102505.25;4999360;28;45532;-80
2024/01/08 08:53:35;;;;;;;;;19.25;16.75;;;;;0.44;76.17;102508.88;4990291;28;45432;-80
2024/01/08 08:56:00;;;;;;;;;23.25;18.50;;;;;0.02;76.11;102458.50;5002456;28;45849;-80
2024/01/08 08:58:26;;;;;;;;;28.25;19.50;;;;;0.63;74.92;102572.59;4987851;28;45402;-80
2024/01/08 09:00:51;;;;;;;;;19.00;15.50;;;;;-0.56;74.97;102399.09;4988689;28;45529;-80
2024/01/08 09:03:20;;;;;;;;;17.25;16.25;;;;;0.25;75.91;102480.69;4997934;28;45698;-80
2024/01/08 09:05:55;;;;;;;;;17.75;12.00;;;;;0.48;75.58;102538.44;4999230;28;45396;-80
2024/01/08 09:08:26;;;;;;;;;23.25;17.50;;;;;0.66;74.64;102559.66;5012428;28;45496;-80
2024/01/08 09:10:57;;;;;;;;;24.75;19.75;;;;;0.89;74.58;102617.41;4979300;28;45546;-80
2024/01/08 09:13:24;;;;;;;;;23.50;18.00;;;;;-0.13;75.18;102459.00;4990819;28;45488;-80
2024/01/08 09:15:49;;;;;;;;;23.75;18.25;;;;;-0.27;75.79;102423.16;5013822;28;45320;-80
2024/01/08 09:18:16;;;;;;;;;23.50;22.00;;;;;0.42;75.43;102527.91;5000528;28;45338;-80
2024/01/08 09:20:42;;;;;;;;;24.50;21.00;;;;;-0.29;75.40;102398.84;5002230;28;45686;-79
2024/01/08 09:23:08;;;;;;;;;28.50;22.75;;;;;0.50;74.71;102524.59;4999977;28;46919;-80
2024/01/08 09:25:38;;;;;;;;;41.25;27.50;;;;;0.06;75.43;102433.44;4998050;28;45323;-80
2024/01/08 09:28:04;;;;;;;;;37.25;30.00;;;;;0.58;75.49;102555.13;5000555;28;45338;-80
2024/01/08 09:30:30;;;;;;;;;39.75;31.75;;;;;0.95;74.54;102589.78;4986625;28;45551;-79
2024/01/08 09:32:58;;;;;;;;;34.75;27.75;;;;;0.25;75.28;102480.69;4990576;28;45432;-80
2024/01/08 09:35:24;;;;;;;;;22.25;19.75;;;;;0.04;75.42;102443.78;4995232;28;45346;-80
2024/01/08 09:37:49;;;;;;;;;35.00;21.00;;;;;0.61;76.41;102524.84;4987406;28;45460;-80
2024/01/08 09:40:14;;;;;;;;;20.75;18.00;;;;;0.94;77.07;102589.75;4999231;28;45606;-80
2024/01/08 09:42:40;;;;;;;;;18.25;18.25;;;;;0.99;78.54;102603.75;5002980;28;46194;-80
2024/01/08 09:45:11;;;;;;;;;25.00;18.25;;;;;0.95;77.34;102594.09;4998327;28;45428;-80
2024/01/08 09:47:41;;;;;;;;;27.00;17.25;;;;;0.98;78.86;102612.44;4989321;28;45290;-80
2024/01/08 09:50:11;;;;;;;;;24.00;20.00;;;;;0.93;78.80;102603.63;4997396;28;45782;-80
2024/01/08 09:52:42;;;;;;;;;22.25;19.75;;;;;0.42;80.56;102504.47;4998411;28;46363;-80
2024/01/08 09:55:13;;;;;;;;;21.25;19.75;;;;;0.70;81.07;102551.06;4985921;28;45464;-80
2024/01/08 09:57:46;;;;;;;;;13.25;12.00;;;;;-0.12;80.82;102426.09;5000136;28;45456;-80
2024/01/08 10:00:13;;;;;;;;;28.00;23.50;;;;;0.49;81.59;102516.78;4995555;28;45630;-80
2024/01/08 10:02:44;;;;;;;;;20.50;16.75;;;;;-0.13;82.63;102412.22;4990005;28;47468;-79
2024/01/08 10:05:14;;;;;;;;;17.25;16.50;;;;;0.59;83.12;102543.88;4985048;28;45364;-80
2024/01/08 10:07:39;;;;;;;;;24.50;20.50;;;;;-0.17;84.48;102457.22;4998499;28;45550;-80
2024/01/08 10:10:05;;;;;;;;;23.75;21.00;;;;;0.93;83.94;102599.28;4992163;28;45621;-80
2024/01/08 10:12:37;;;;;;;;;21.75;17.50;;;;;0.69;86.28;102558.84;4991875;28;45491;-80
2024/01/08 10:15:04;;;;;;;;;24.25;22.00;;;;;0.46;85.60;102534.91;4984938;28;45804;-80
2024/01/08 10:17:33;;;;;;;;;26.00;22.75;;;;;0.16;85.96;102480.50;4999115;28;45546;-80
2024/01/08 10:20:06;;;;;;;;;34.00;23.75;;;;;0.85;87.52;102592.19;4993505;28;45582;-80
2024/01/08 10:22:31;;;;;;;;;23.00;21.25;;;;;0.63;87.16;102551.78;4996837;28;46339;-79
2024/01/08 10:25:01;;;;;;;;;27.75;23.25;;;;;1.03;87.36;102613.38;5000737;28;45392;-80
2024/01/08 10:27:29;;;;;;;;;33.75;24.50;;;;;0.63;87.85;102546.56;4988283;28;45378;-80
2024/01/08 10:30:02;;;;;;;;;30.00;23.75;;;;;0.33;86.89;102522.47;5000303;28;45472;-80
2024/01/08 10:32:29;;;;;;;;;26.25;22.00;;;;;-0.31;87.54;102377.13;4987037;28;46211;-80
2024/01/08 10:34:56;;;;;;;;;23.75;18.50;;;;;0.55;88.30;102522.09;4997880;28;45438;-79
2024/01/08 10:37:22;;;;;;;;;34.25;29.75;;;;;0.57;89.77;102548.16;4999201;28;45376;-80
2024/01/08 10:39:54;;;;;;;;;27.75;23.75;;;;;-0.24;89.95;102405.91;4997305;28;45517;-80
2024/01/08 10:42:20;;;;;;;;;30.25;24.50;;;;;-0.08;91.40;102422.72;4993596;28;46248;-80
2024/01/08 10:44:45;;;;;;;;;27.25;23.25;;;;;-0.03;93.85;102471.38;4991109;28;45267;-80
2024/01/08 10:47:18;;;;;;;;;28.00;24.25;;;;;0.82;93.66;102592.13;4997535;28;45474;-80
2024/01/08 10:49:59;;;;;;;;;26.00;23.25;;;;;0.92;96.08;102631.38;4997827;28;45314;-80
2024/01/08 10:52:32;;;;;;;;;32.25;25.00;;;;;-0.08;95.76;102448.72;4982904;28;46895;-80
2024/01/08 10:55:06;;;;;;;;;29.25;23.75;;;;;0.13;94.81;102488.19;4991628;28;45621;-79
2024/01/08 10:57:55;;;;;;;;;38.50;29.75;;;;;-0.21;97.79;102434.56;4988502;28;45468;-80
2024/01/08 11:00:22;;;;;;;;;39.50;29.00;;;;;0.01;99.22;102503.53;4991740;28;45341;-80
2024/01/08 11:02:48;;;;;;;;;37.50;28.25;;;;;-0.08;98.70;102490.34;4992146;28;45609;-79
2024/01/08 11:05:16;;;;;;;;;33.00;30.00;;;;;0.65;98.79;102570.03;4986385;28;45308;-79
2024/01/08 11:07:49;;;;;;;;;29.50;26.75;;;;;0.06;97.44;102496.75;4984035;28;45359;-80
2024/01/08 11:10:15;;;;;;;;;30.50;22.50;;;;;0.73;97.02;102569.34;4998773;28;45288;-79
2024/01/08 11:12:44;;;;;;;;;42.50;28.75;;;;;0.71;98.87;102551.94;5013945;28;46390;-80
2024/01/08 11:15:15;;;;;;;;;25.50;23.75;;;;;0.32;94.03;102490.38;4991085;28;45889;-79